createdAt,value
2019-02-06T00:02:18.185Z,4.10
2019-02-06T00:04:51.606Z,4.10
2019-02-06T00:07:23.323Z,4.10
2019-02-06T00:09:56.682Z,4.10
2019-02-06T00:12:28.799Z,4.10
2019-02-06T00:15:02.298Z,4.10
2019-02-06T00:17:34.309Z,4.00
2019-02-06T00:20:06.578Z,4.00
2019-02-06T00:22:38.672Z,4.00
2019-02-06T00:25:10.777Z,3.90
2019-02-06T00:27:45.402Z,4.00
2019-02-06T00:30:17.311Z,4.00
2019-02-06T00:32:49.870Z,4.00
2019-02-06T00:35:25.868Z,4.10
2019-02-06T00:37:56.184Z,4.10
2019-02-06T00:40:28.048Z,4.10
2019-02-06T00:42:59.912Z,4.10
2019-02-06T00:45:31.807Z,4.20
2019-02-06T00:48:05.666Z,4.20
2019-02-06T00:50:39.318Z,4.20
2019-02-06T00:53:11.108Z,4.20
2019-02-06T00:55:43.188Z,4.20
2019-02-06T00:58:15.108Z,4.10
2019-02-06T01:00:46.877Z,4.20
2019-02-06T01:03:18.674Z,4.10
2019-02-06T01:05:50.282Z,4.10
2019-02-06T01:08:23.100Z,4.10
2019-02-06T01:10:54.737Z,4.20
2019-02-06T01:13:28.123Z,4.20
2019-02-06T01:16:00.491Z,4.20
2019-02-06T01:18:32.246Z,4.30
2019-02-06T01:21:03.839Z,4.30
2019-02-06T01:23:35.721Z,4.30
2019-02-06T01:26:07.568Z,4.30
2019-02-06T01:28:39.566Z,4.30
2019-02-06T01:31:15.860Z,4.20
2019-02-06T01:33:48.458Z,4.20
2019-02-06T01:36:19.966Z,4.20
2019-02-06T01:38:51.640Z,4.20
2019-02-06T01:41:23.700Z,4.10
2019-02-06T01:43:55.666Z,4.00
2019-02-06T01:46:27.465Z,4.00
2019-02-06T01:48:59.995Z,3.90
2019-02-06T01:51:31.696Z,4.00
2019-02-06T01:54:03.371Z,4.00
2019-02-06T01:56:34.757Z,4.00
2019-02-06T01:59:07.912Z,3.90
2019-02-06T02:01:40.026Z,3.90
2019-02-06T02:04:13.737Z,4.00
2019-02-06T02:06:46.014Z,4.00
2019-02-06T02:09:19.740Z,4.00
2019-02-06T02:11:51.618Z,4.10
2019-02-06T02:14:23.120Z,4.10
2019-02-06T02:16:54.878Z,4.10
2019-02-06T02:19:26.157Z,4.10
2019-02-06T02:21:58.065Z,4.20
2019-02-06T02:24:29.637Z,4.30
2019-02-06T02:27:01.114Z,4.30
2019-02-06T02:29:33.215Z,4.30
2019-02-06T02:32:06.040Z,4.40
2019-02-06T02:34:37.415Z,4.40
2019-02-06T02:37:09.293Z,4.40
2019-02-06T02:39:41.853Z,4.40
2019-02-06T02:42:13.492Z,4.40
2019-02-06T02:44:45.527Z,4.30
2019-02-06T02:47:16.901Z,4.30
2019-02-06T02:49:48.554Z,4.40
2019-02-06T02:52:27.388Z,4.40
2019-02-06T02:54:59.286Z,4.30
2019-02-06T02:57:31.387Z,4.30
2019-02-06T03:00:06.369Z,4.20
2019-02-06T03:02:55.998Z,4.00
2019-02-06T03:05:30.436Z,4.00
2019-02-06T03:08:01.962Z,4.00
2019-02-06T03:10:33.897Z,3.90
2019-02-06T03:13:06.238Z,4.00
2019-02-06T03:15:38.086Z,4.00
2019-02-06T03:18:09.927Z,4.10
2019-02-06T03:20:41.743Z,4.10
2019-02-06T03:23:14.233Z,4.10
2019-02-06T03:25:46.148Z,4.10
2019-02-06T03:28:19.168Z,4.10
2019-02-06T03:30:50.979Z,4.10
2019-02-06T03:33:27.954Z,4.20
2019-02-06T03:35:59.462Z,4.30
2019-02-06T03:38:32.180Z,4.20
2019-02-06T03:41:05.877Z,4.30
2019-02-06T03:43:37.301Z,4.20
2019-02-06T03:46:09.184Z,4.20
2019-02-06T03:48:40.731Z,4.30
2019-02-06T03:51:12.325Z,4.40
2019-02-06T03:53:44.971Z,4.30
2019-02-06T03:56:16.309Z,4.30
2019-02-06T03:58:48.133Z,4.30
2019-02-06T04:01:20.512Z,4.30
2019-02-06T04:03:52.109Z,4.30
2019-02-06T04:06:23.922Z,4.40
2019-02-06T04:08:55.290Z,4.40
2019-02-06T04:11:27.279Z,4.40
2019-02-06T04:13:58.935Z,4.40
2019-02-06T04:16:30.777Z,4.50
2019-02-06T04:19:02.501Z,4.50
2019-02-06T04:21:36.222Z,4.50
2019-02-06T04:24:07.604Z,4.50
2019-02-06T04:26:39.167Z,4.50
2019-02-06T04:29:10.875Z,4.50
2019-02-06T04:31:42.484Z,4.50
2019-02-06T04:34:14.289Z,4.50
2019-02-06T04:36:45.943Z,4.50
2019-02-06T04:39:17.451Z,4.50
2019-02-06T04:41:51.302Z,4.60
2019-02-06T04:44:22.973Z,4.60
2019-02-06T04:46:54.522Z,4.60
2019-02-06T04:49:25.995Z,4.60
2019-02-06T04:51:58.181Z,4.60
2019-02-06T04:54:30.791Z,4.60
2019-02-06T04:57:03.417Z,4.60
2019-02-06T04:59:35.013Z,4.50
2019-02-06T05:02:06.796Z,4.50
2019-02-06T05:04:38.247Z,4.40
2019-02-06T05:07:18.681Z,4.40
2019-02-06T05:09:43.287Z,4.30
2019-02-06T05:12:15.203Z,4.30
2019-02-06T05:14:46.495Z,4.20
2019-02-06T05:17:18.756Z,4.20
2019-02-06T05:19:50.951Z,4.20
2019-02-06T05:22:22.892Z,4.20
2019-02-06T05:24:54.284Z,4.20
2019-02-06T05:27:26.044Z,4.10
2019-02-06T05:29:59.230Z,4.10
2019-02-06T05:32:31.356Z,4.00
2019-02-06T05:35:04.920Z,3.90
2019-02-06T05:37:36.319Z,3.90
2019-02-06T05:40:08.486Z,3.90
2019-02-06T05:42:42.385Z,3.80
2019-02-06T05:45:14.041Z,3.80
2019-02-06T05:47:46.317Z,3.80
2019-02-06T05:50:17.934Z,3.80
2019-02-06T05:52:55.033Z,3.70
2019-02-06T05:55:27.798Z,3.70
2019-02-06T05:57:59.466Z,3.70
2019-02-06T06:00:38.303Z,3.70
2019-02-06T06:03:10.379Z,3.60
2019-02-06T06:05:42.198Z,3.70
2019-02-06T06:08:13.998Z,3.60
2019-02-06T06:10:45.838Z,3.60
2019-02-06T06:13:18.604Z,3.50
2019-02-06T06:15:50.466Z,3.50
2019-02-06T06:18:22.225Z,3.50
2019-02-06T06:20:54.381Z,3.50
2019-02-06T06:23:26.204Z,3.60
2019-02-06T06:25:57.751Z,3.60
2019-02-06T06:28:30.468Z,3.50
2019-02-06T06:31:02.227Z,3.50
2019-02-06T06:33:34.294Z,3.50
2019-02-06T06:36:06.050Z,3.50
2019-02-06T06:38:37.493Z,3.50
2019-02-06T06:41:09.378Z,3.50
2019-02-06T06:43:41.102Z,3.60
2019-02-06T06:46:13.416Z,3.70
2019-02-06T06:48:45.344Z,3.70
2019-02-06T06:51:18.960Z,3.70
2019-02-06T06:53:50.695Z,3.70
2019-02-06T06:56:22.315Z,3.80
2019-02-06T06:58:54.043Z,3.80
2019-02-06T07:01:25.869Z,3.90
2019-02-06T07:03:57.584Z,4.00
2019-02-06T07:06:29.291Z,4.00
2019-02-06T07:09:01.515Z,4.00
2019-02-06T07:11:34.481Z,4.10
2019-02-06T07:14:06.029Z,4.20
2019-02-06T07:16:37.384Z,4.20
2019-02-06T07:19:08.868Z,4.30
2019-02-06T07:21:40.856Z,4.40
2019-02-06T07:24:12.656Z,4.50
2019-02-06T07:26:44.857Z,4.50
2019-02-06T07:29:16.296Z,4.60
2019-02-06T07:31:48.348Z,4.70
2019-02-06T07:34:19.861Z,4.70
2019-02-06T07:36:51.670Z,4.80
2019-02-06T07:39:23.390Z,4.80
2019-02-06T07:41:55.350Z,4.90
2019-02-06T07:44:27.349Z,4.90
2019-02-06T07:46:59.125Z,4.90
2019-02-06T07:49:31.816Z,4.90
2019-02-06T07:52:04.149Z,4.80
2019-02-06T07:54:39.096Z,4.80
2019-02-06T07:57:15.329Z,4.90
2019-02-06T07:59:46.867Z,5.00
2019-02-06T08:02:22.208Z,5.00
2019-02-06T08:04:53.948Z,5.00
2019-02-06T08:07:25.810Z,5.00
2019-02-06T08:09:57.567Z,4.90
2019-02-06T08:12:29.839Z,5.10
2019-02-06T08:15:01.427Z,5.10
2019-02-06T08:17:37.614Z,5.00
2019-02-06T08:20:11.235Z,5.00
2019-02-06T08:22:43.696Z,5.20
2019-02-06T08:25:17.319Z,5.20
2019-02-06T08:27:48.975Z,5.20
2019-02-06T08:30:27.580Z,5.20
2019-02-06T08:32:59.374Z,5.30
2019-02-06T08:35:31.154Z,5.30
2019-02-06T08:38:02.840Z,5.10
2019-02-06T08:40:34.844Z,5.20
2019-02-06T08:43:08.337Z,5.20
2019-02-06T08:45:40.117Z,5.30
2019-02-06T08:48:13.612Z,5.30
2019-02-06T08:50:45.503Z,5.30
2019-02-06T08:53:17.416Z,5.20
2019-02-06T08:55:52.171Z,5.40
2019-02-06T08:58:23.785Z,5.50
2019-02-06T09:00:55.933Z,5.50
2019-02-06T09:03:27.584Z,5.30
2019-02-06T09:05:59.351Z,5.20
2019-02-06T09:08:31.157Z,5.10
2019-02-06T09:11:02.582Z,5.20
2019-02-06T09:13:40.125Z,5.30
2019-02-06T09:16:11.936Z,5.20
2019-02-06T09:18:45.367Z,5.30
2019-02-06T09:21:17.126Z,5.20
2019-02-06T09:23:48.763Z,5.30
2019-02-06T09:26:20.688Z,5.30
2019-02-06T09:28:52.288Z,5.20
2019-02-06T09:31:23.897Z,5.30
2019-02-06T09:33:55.434Z,5.50
2019-02-06T09:36:28.546Z,5.70
2019-02-06T09:39:11.144Z,5.90
2019-02-06T09:41:42.349Z,5.70
2019-02-06T09:44:14.257Z,5.70
2019-02-06T09:46:46.279Z,5.80
2019-02-06T09:49:20.141Z,5.50
2019-02-06T09:51:52.168Z,5.50
2019-02-06T09:54:23.866Z,5.60
2019-02-06T09:56:56.541Z,5.60
2019-02-06T09:59:28.082Z,5.60
2019-02-06T10:02:00.892Z,5.50
2019-02-06T10:04:32.757Z,5.50
2019-02-06T10:07:04.721Z,5.40
2019-02-06T10:09:36.284Z,5.50
2019-02-06T10:12:07.969Z,5.60
2019-02-06T10:14:39.906Z,5.70
2019-02-06T10:17:11.619Z,5.60
2019-02-06T10:19:43.544Z,5.70
2019-02-06T10:22:15.197Z,5.70
2019-02-06T10:24:49.570Z,5.70
2019-02-06T10:27:23.911Z,5.80
2019-02-06T10:29:54.689Z,5.80
2019-02-06T10:32:26.653Z,5.80
2019-02-06T10:34:58.218Z,6.10
2019-02-06T10:37:30.136Z,6.10
2019-02-06T10:40:01.574Z,6.10
2019-02-06T10:42:35.058Z,6.20
2019-02-06T10:45:07.028Z,6.20
2019-02-06T10:47:38.388Z,6.30
2019-02-06T10:50:11.844Z,6.40
2019-02-06T10:52:43.657Z,6.40
2019-02-06T10:55:18.738Z,6.20
2019-02-06T10:57:51.908Z,6.00
2019-02-06T11:00:35.132Z,6.00
2019-02-06T11:03:06.888Z,5.90
2019-02-06T11:05:38.574Z,5.70
2019-02-06T11:08:10.408Z,5.60
2019-02-06T11:10:41.980Z,5.50
2019-02-06T11:13:14.129Z,5.60
2019-02-06T11:15:46.420Z,5.60
2019-02-06T11:18:18.108Z,5.50
2019-02-06T11:20:49.614Z,5.60
2019-02-06T11:23:21.156Z,5.60
2019-02-06T11:25:52.514Z,5.80
2019-02-06T11:28:24.126Z,5.80
2019-02-06T11:30:57.225Z,5.80
2019-02-06T11:33:29.357Z,5.90
2019-02-06T11:36:02.396Z,6.00
2019-02-06T11:38:36.694Z,6.20
2019-02-06T11:41:08.379Z,6.00
2019-02-06T11:43:45.419Z,6.10
2019-02-06T11:46:17.121Z,6.00
2019-02-06T11:48:48.611Z,5.90
2019-02-06T11:51:20.781Z,5.80
2019-02-06T11:53:52.263Z,5.50
2019-02-06T11:56:23.872Z,5.60
2019-02-06T11:58:55.476Z,5.70
2019-02-06T12:01:33.648Z,5.60
2019-02-06T12:04:05.607Z,5.80
2019-02-06T12:06:37.387Z,6.10
2019-02-06T12:09:13.508Z,6.10
2019-02-06T12:11:46.142Z,6.20
2019-02-06T12:14:19.010Z,6.30
2019-02-06T12:16:50.458Z,6.30
2019-02-06T12:19:22.156Z,6.30
2019-02-06T12:21:53.981Z,6.20
2019-02-06T12:24:25.410Z,6.10
2019-02-06T12:26:57.389Z,6.00
2019-02-06T12:29:31.219Z,6.20
2019-02-06T12:32:03.171Z,6.30
2019-02-06T12:34:36.697Z,6.40
2019-02-06T12:37:08.351Z,6.40
2019-02-06T12:39:40.159Z,6.30
2019-02-06T12:42:17.707Z,6.30
2019-02-06T12:44:49.560Z,6.30
2019-02-06T12:47:22.683Z,6.40
2019-02-06T12:50:01.673Z,6.40
2019-02-06T12:52:29.980Z,6.10
2019-02-06T12:55:01.571Z,6.30
2019-02-06T12:57:37.432Z,6.40
2019-02-06T13:00:14.378Z,6.30
2019-02-06T13:02:46.491Z,6.20
2019-02-06T13:05:19.151Z,6.30
2019-02-06T13:07:50.871Z,6.40
2019-02-06T13:10:33.424Z,6.30
2019-02-06T13:12:57.699Z,6.40
2019-02-06T13:15:29.407Z,6.40
2019-02-06T13:18:01.269Z,6.30
2019-02-06T13:20:33.604Z,6.40
2019-02-06T13:23:08.093Z,6.40
2019-02-06T13:25:39.967Z,6.30
2019-02-06T13:28:13.059Z,6.40
2019-02-06T13:30:45.073Z,6.40
2019-02-06T13:33:18.273Z,6.30
2019-02-06T13:35:50.148Z,6.30
2019-02-06T13:38:23.211Z,6.30
2019-02-06T13:40:55.506Z,6.20
2019-02-06T13:43:27.544Z,6.40
2019-02-06T13:45:59.097Z,6.30
2019-02-06T13:48:33.776Z,6.40
2019-02-06T13:51:16.365Z,6.50
2019-02-06T13:53:38.474Z,6.40
2019-02-06T13:56:11.498Z,6.30
2019-02-06T13:58:45.936Z,6.40
2019-02-06T14:01:25.421Z,6.50
2019-02-06T14:03:50.929Z,6.40
2019-02-06T14:06:23.643Z,6.50
2019-02-06T14:08:55.415Z,6.30
2019-02-06T14:11:27.063Z,6.40
2019-02-06T14:13:58.711Z,6.40
2019-02-06T14:16:30.898Z,6.50
2019-02-06T14:19:04.752Z,6.60
2019-02-06T14:21:36.390Z,6.50
2019-02-06T14:24:45.691Z,6.60
2019-02-06T14:27:46.505Z,6.60
2019-02-06T14:30:28.152Z,6.50
2019-02-06T14:33:10.115Z,6.40
2019-02-06T14:36:22.976Z,6.40
2019-02-06T14:39:07.253Z,6.10
2019-02-06T14:42:14.569Z,6.10
2019-02-06T14:45:26.732Z,6.20
2019-02-06T14:48:20.471Z,6.10
2019-02-06T14:51:24.445Z,6.10
2019-02-06T14:54:10.430Z,6.20
2019-02-06T14:57:29.841Z,6.00
2019-02-06T15:00:59.255Z,6.00
2019-02-06T15:03:58.711Z,6.00
2019-02-06T15:06:59.752Z,6.00
2019-02-06T15:10:08.676Z,6.10
2019-02-06T15:13:00.641Z,6.10
2019-02-06T15:16:13.149Z,6.10
2019-02-06T15:19:14.379Z,6.10
2019-02-06T15:22:00.319Z,6.00
2019-02-06T15:24:58.301Z,6.00
2019-02-06T15:28:23.439Z,5.90
2019-02-06T15:31:32.326Z,5.90
2019-02-06T15:34:55.665Z,5.70
2019-02-06T15:38:18.492Z,5.70
2019-02-06T15:41:46.488Z,5.70
2019-02-06T15:44:50.221Z,5.70
2019-02-06T15:47:34.684Z,5.60
2019-02-06T15:50:26.886Z,5.60
2019-02-06T15:53:53.977Z,5.50
2019-02-06T15:56:57.171Z,5.50
2019-02-06T15:59:56.694Z,5.60
2019-02-06T16:02:52.556Z,5.60
2019-02-06T16:06:14.553Z,5.60
2019-02-06T16:09:15.228Z,5.60
2019-02-06T16:12:36.548Z,5.50
2019-02-06T16:15:40.822Z,5.40
2019-02-06T16:18:38.412Z,5.50
2019-02-06T16:21:53.028Z,5.50
2019-02-06T16:24:45.169Z,5.50
2019-02-06T16:27:53.725Z,5.50
2019-02-06T16:30:57.832Z,5.60
2019-02-06T16:34:19.667Z,5.50
2019-02-06T16:37:30.078Z,5.50
2019-02-06T16:40:37.709Z,5.40
2019-02-06T16:43:41.323Z,5.20
2019-02-06T16:47:07.485Z,5.30
2019-02-06T16:50:28.563Z,5.30
2019-02-06T16:53:37.584Z,5.20
2019-02-06T16:56:47.217Z,5.20
2019-02-06T17:00:11.708Z,5.20
2019-02-06T17:03:08.020Z,5.10
2019-02-06T17:06:04.046Z,4.90
2019-02-06T17:09:12.249Z,4.90
2019-02-06T17:12:20.800Z,4.80
2019-02-06T17:15:17.926Z,4.90
2019-02-06T17:18:48.727Z,4.90
2019-02-06T17:22:00.168Z,4.90
2019-02-06T17:25:11.330Z,4.90
2019-02-06T17:28:27.245Z,4.90
2019-02-06T17:31:42.350Z,4.90
2019-02-06T17:34:35.562Z,4.70
2019-02-06T17:37:53.274Z,4.70
2019-02-06T17:41:01.228Z,4.90
2019-02-06T17:44:12.556Z,4.70
2019-02-06T17:46:48.155Z,4.80
2019-02-06T17:50:18.908Z,4.70
2019-02-06T17:53:30.514Z,4.80
2019-02-06T17:56:02.096Z,4.70
2019-02-06T17:58:38.652Z,4.60
2019-02-06T18:01:26.679Z,4.60
2019-02-06T18:04:02.333Z,4.60
2019-02-06T18:06:34.154Z,4.60
2019-02-06T18:09:10.361Z,4.60
2019-02-06T18:11:42.623Z,4.60
2019-02-06T18:14:14.635Z,4.60
2019-02-06T18:16:46.468Z,4.60
2019-02-06T18:19:17.895Z,4.60
2019-02-06T18:21:49.729Z,4.70
2019-02-06T18:24:21.583Z,4.70
2019-02-06T18:26:53.941Z,4.70
2019-02-06T18:29:28.302Z,4.60
2019-02-06T18:32:00.148Z,4.60
2019-02-06T18:34:31.718Z,4.60
2019-02-06T18:37:04.616Z,4.70
2019-02-06T18:39:36.335Z,4.70
2019-02-06T18:42:08.413Z,4.70
2019-02-06T18:44:42.160Z,4.70
2019-02-06T18:47:13.875Z,4.80
2019-02-06T18:49:45.798Z,4.70
2019-02-06T18:52:20.515Z,4.70
2019-02-06T18:54:52.709Z,4.70
2019-02-06T18:57:24.707Z,4.80
2019-02-06T18:59:56.379Z,4.80
2019-02-06T19:02:28.299Z,4.70
2019-02-06T19:05:01.523Z,4.60
2019-02-06T19:07:34.853Z,4.60
2019-02-06T19:10:08.962Z,4.60
2019-02-06T19:12:47.813Z,4.70
2019-02-06T19:15:14.575Z,4.70
2019-02-06T19:17:45.968Z,4.80
2019-02-06T19:20:18.246Z,4.80
2019-02-06T19:22:50.158Z,4.80
2019-02-06T19:25:23.897Z,4.80
2019-02-06T19:27:56.310Z,4.70
2019-02-06T19:30:30.967Z,4.80
2019-02-06T19:33:04.569Z,4.80
2019-02-06T19:35:36.293Z,4.80
2019-02-06T19:38:07.864Z,4.80
2019-02-06T19:40:39.524Z,4.80
2019-02-06T19:43:11.313Z,4.70
2019-02-06T19:45:44.026Z,4.70
2019-02-06T19:48:21.835Z,4.80
2019-02-06T19:50:49.804Z,4.70
2019-02-06T19:53:22.380Z,4.80
2019-02-06T19:55:53.731Z,4.80
2019-02-06T19:58:25.417Z,4.90
2019-02-06T20:00:57.831Z,4.80
2019-02-06T20:03:29.977Z,4.70
2019-02-06T20:06:05.464Z,4.70
2019-02-06T20:08:35.981Z,4.70
2019-02-06T20:11:07.978Z,4.80
2019-02-06T20:13:40.172Z,4.90
2019-02-06T20:16:12.099Z,4.90
2019-02-06T20:18:44.401Z,4.90
2019-02-06T20:21:16.203Z,4.80
2019-02-06T20:23:51.144Z,4.80
2019-02-06T20:26:23.385Z,4.70
2019-02-06T20:28:55.804Z,4.80
2019-02-06T20:31:29.390Z,4.60
2019-02-06T20:34:01.610Z,4.60
2019-02-06T20:36:36.679Z,4.70
2019-02-06T20:39:10.760Z,4.80
2019-02-06T20:41:42.760Z,4.70
2019-02-06T20:44:16.503Z,4.70
2019-02-06T20:46:48.390Z,4.80
2019-02-06T20:49:20.146Z,4.80
2019-02-06T20:51:52.646Z,4.70
2019-02-06T20:54:24.869Z,4.70
2019-02-06T20:56:56.706Z,4.60
2019-02-06T20:59:31.610Z,4.70
2019-02-06T21:02:03.573Z,4.80
2019-02-06T21:04:37.710Z,4.70
2019-02-06T21:07:09.879Z,4.70
2019-02-06T21:09:42.363Z,4.70
2019-02-06T21:12:14.293Z,4.60
2019-02-06T21:14:46.664Z,4.60
2019-02-06T21:17:19.287Z,4.80
2019-02-06T21:19:51.178Z,4.70
2019-02-06T21:22:25.799Z,4.70
2019-02-06T21:24:59.424Z,4.70
2019-02-06T21:27:31.882Z,4.60
2019-02-06T21:30:03.917Z,4.70
2019-02-06T21:32:37.708Z,4.70
2019-02-06T21:35:09.481Z,4.80
2019-02-06T21:37:40.840Z,4.70
2019-02-06T21:40:16.124Z,4.70
2019-02-06T21:42:48.592Z,4.70
2019-02-06T21:45:20.580Z,4.70
2019-02-06T21:47:52.300Z,4.70
2019-02-06T21:50:24.166Z,4.70
2019-02-06T21:53:01.792Z,4.60
2019-02-06T21:55:33.699Z,4.60
2019-02-06T21:58:05.996Z,4.70
2019-02-06T22:00:40.028Z,4.60
2019-02-06T22:03:11.894Z,4.60
2019-02-06T22:05:43.913Z,4.60
2019-02-06T22:08:15.609Z,4.50
2019-02-06T22:10:47.318Z,4.50
2019-02-06T22:13:19.551Z,4.40
2019-02-06T22:15:52.380Z,4.50
2019-02-06T22:18:24.067Z,4.60
2019-02-06T22:20:55.742Z,4.60
2019-02-06T22:23:27.685Z,4.60
2019-02-06T22:25:59.484Z,4.60
2019-02-06T22:28:33.648Z,4.60
2019-02-06T22:31:05.397Z,4.70
2019-02-06T22:33:36.954Z,4.70
2019-02-06T22:36:08.711Z,4.70
2019-02-06T22:38:40.405Z,4.70
2019-02-06T22:41:12.719Z,4.70
2019-02-06T22:43:47.783Z,4.60
2019-02-06T22:46:19.989Z,4.60
2019-02-06T22:48:51.897Z,4.50
2019-02-06T22:51:23.409Z,4.50
2019-02-06T22:53:55.135Z,4.60
2019-02-06T22:56:26.735Z,4.70
2019-02-06T22:58:58.440Z,4.70
2019-02-06T23:01:40.487Z,4.70
2019-02-06T23:04:14.266Z,4.60
2019-02-06T23:06:47.644Z,4.60
2019-02-06T23:09:19.496Z,4.60
2019-02-06T23:11:51.140Z,4.60
2019-02-06T23:14:22.692Z,4.60
2019-02-06T23:16:55.475Z,4.60
2019-02-06T23:19:27.641Z,4.60
2019-02-06T23:22:00.443Z,4.50
2019-02-06T23:24:32.211Z,4.50
2019-02-06T23:27:04.136Z,4.50
2019-02-06T23:29:37.682Z,4.50
2019-02-06T23:32:09.690Z,4.50
2019-02-06T23:34:41.069Z,4.50
2019-02-06T23:37:12.570Z,4.50
2019-02-06T23:39:45.408Z,4.50
2019-02-06T23:42:16.901Z,4.40
2019-02-06T23:44:52.050Z,4.30
2019-02-06T23:47:23.891Z,4.30
2019-02-06T23:49:55.807Z,4.30
2019-02-06T23:52:27.994Z,4.30
2019-02-06T23:54:59.780Z,4.10
2019-02-06T23:57:31.741Z,4.00
